sensor_id;sensor_type;location;lat;lon;timestamp;P1;durP1;ratioP1;P2;durP2;ratioP2
51961;SDS011;37986;51.238;17.128;2022-09-09T00:04:58;20.00;;;13.13;;
51961;SDS011;37986;51.238;17.128;2022-09-09T00:10:28;37.03;;;12.73;;
51961;SDS011;37986;51.238;17.128;2022-09-09T00:13:05;57.27;;;13.20;;
51961;SDS011;37986;51.238;17.128;2022-09-09T00:21:22;136.75;;;13.65;;
51961;SDS011;37986;51.238;17.128;2022-09-09T00:23:55;46.20;;;11.55;;
51961;SDS011;37986;51.238;17.128;2022-09-09T00:32:11;21.97;;;9.95;;
51961;SDS011;37986;51.238;17.128;2022-09-09T00:34:47;30.88;;;9.85;;
51961;SDS011;37986;51.238;17.128;2022-09-09T00:37:31;41.70;;;9.98;;
51961;SDS011;37986;51.238;17.128;2022-09-09T00:39:59;69.53;;;9.88;;
51961;SDS011;37986;51.238;17.128;2022-09-09T00:42:35;47.20;;;8.10;;
51961;SDS011;37986;51.238;17.128;2022-09-09T00:48:19;9.13;;;6.42;;
51961;SDS011;37986;51.238;17.128;2022-09-09T00:50:56;12.60;;;5.62;;
51961;SDS011;37986;51.238;17.128;2022-09-09T00:53:35;48.95;;;7.85;;
51961;SDS011;37986;51.238;17.128;2022-09-09T00:56:41;10.68;;;6.58;;
51961;SDS011;37986;51.238;17.128;2022-09-09T01:01:50;49.03;;;8.20;;
51961;SDS011;37986;51.238;17.128;2022-09-09T01:04:18;17.75;;;6.95;;
51961;SDS011;37986;51.238;17.128;2022-09-09T01:06:50;42.53;;;7.10;;
51961;SDS011;37986;51.238;17.128;2022-09-09T01:12:16;65.20;;;8.08;;
51961;SDS011;37986;51.238;17.128;2022-09-09T01:14:55;68.33;;;7.65;;
51961;SDS011;37986;51.238;17.128;2022-09-09T01:17:31;56.15;;;8.28;;
51961;SDS011;37986;51.238;17.128;2022-09-09T01:28:45;30.82;;;6.75;;
51961;SDS011;37986;51.238;17.128;2022-09-09T01:31:15;12.35;;;6.33;;
51961;SDS011;37986;51.238;17.128;2022-09-09T01:34:00;26.68;;;6.45;;
51961;SDS011;37986;51.238;17.128;2022-09-09T01:36:33;18.48;;;6.53;;
51961;SDS011;37986;51.238;17.128;2022-09-09T01:39:08;14.58;;;5.95;;
51961;SDS011;37986;51.238;17.128;2022-09-09T01:41:35;12.65;;;6.70;;
51961;SDS011;37986;51.238;17.128;2022-09-09T01:44:01;75.15;;;7.22;;
51961;SDS011;37986;51.238;17.128;2022-09-09T01:46:27;25.77;;;5.70;;
51961;SDS011;37986;51.238;17.128;2022-09-09T01:48:54;8.90;;;5.20;;
51961;SDS011;37986;51.238;17.128;2022-09-09T01:51:21;11.60;;;5.17;;
51961;SDS011;37986;51.238;17.128;2022-09-09T01:53:47;5.58;;;5.08;;
51961;SDS011;37986;51.238;17.128;2022-09-09T01:58:53;9.28;;;6.53;;
51961;SDS011;37986;51.238;17.128;2022-09-09T02:05:00;7.62;;;6.83;;
51961;SDS011;37986;51.238;17.128;2022-09-09T02:07:03;7.95;;;7.15;;
51961;SDS011;37986;51.238;17.128;2022-09-09T02:09:34;11.22;;;9.05;;
51961;SDS011;37986;51.238;17.128;2022-09-09T02:12:03;17.27;;;12.43;;
51961;SDS011;37986;51.238;17.128;2022-09-09T02:14:39;13.48;;;11.08;;
51961;SDS011;37986;51.238;17.128;2022-09-09T02:17:08;17.92;;;13.93;;
51961;SDS011;37986;51.238;17.128;2022-09-09T02:19:40;18.30;;;13.58;;
51961;SDS011;37986;51.238;17.128;2022-09-09T02:22:11;11.93;;;10.35;;
51961;SDS011;37986;51.238;17.128;2022-09-09T02:24:39;10.72;;;9.40;;
51961;SDS011;37986;51.238;17.128;2022-09-09T02:27:06;8.73;;;7.90;;
51961;SDS011;37986;51.238;17.128;2022-09-09T02:29:38;10.65;;;9.48;;
51961;SDS011;37986;51.238;17.128;2022-09-09T02:32:15;9.90;;;8.65;;
51961;SDS011;37986;51.238;17.128;2022-09-09T02:34:46;9.97;;;8.93;;
51961;SDS011;37986;51.238;17.128;2022-09-09T02:37:10;8.75;;;7.85;;
51961;SDS011;37986;51.238;17.128;2022-09-09T02:39:37;15.38;;;10.08;;
51961;SDS011;37986;51.238;17.128;2022-09-09T02:42:03;31.97;;;8.78;;
51961;SDS011;37986;51.238;17.128;2022-09-09T02:44:30;12.15;;;9.15;;
51961;SDS011;37986;51.238;17.128;2022-09-09T02:55:11;8.30;;;7.50;;
51961;SDS011;37986;51.238;17.128;2022-09-09T02:57:38;8.68;;;7.80;;
51961;SDS011;37986;51.238;17.128;2022-09-09T03:00:07;13.50;;;10.28;;
51961;SDS011;37986;51.238;17.128;2022-09-09T03:02:33;16.10;;;11.57;;
51961;SDS011;37986;51.238;17.128;2022-09-09T03:04:59;11.83;;;9.50;;
51961;SDS011;37986;51.238;17.128;2022-09-09T03:07:25;23.27;;;10.00;;
51961;SDS011;37986;51.238;17.128;2022-09-09T03:09:52;10.38;;;8.60;;
51961;SDS011;37986;51.238;17.128;2022-09-09T03:12:19;15.40;;;8.85;;
51961;SDS011;37986;51.238;17.128;2022-09-09T03:14:45;12.95;;;8.90;;
51961;SDS011;37986;51.238;17.128;2022-09-09T03:17:11;9.13;;;8.23;;
51961;SDS011;37986;51.238;17.128;2022-09-09T03:19:38;9.43;;;8.15;;
51961;SDS011;37986;51.238;17.128;2022-09-09T03:22:04;8.73;;;7.87;;
51961;SDS011;37986;51.238;17.128;2022-09-09T03:24:30;11.70;;;6.72;;
51961;SDS011;37986;51.238;17.128;2022-09-09T03:26:56;16.65;;;8.25;;
51961;SDS011;37986;51.238;17.128;2022-09-09T03:29:21;12.15;;;6.67;;
51961;SDS011;37986;51.238;17.128;2022-09-09T03:31:47;13.80;;;7.87;;
51961;SDS011;37986;51.238;17.128;2022-09-09T03:34:13;10.10;;;8.18;;
51961;SDS011;37986;51.238;17.128;2022-09-09T03:36:39;110.37;;;25.37;;
51961;SDS011;37986;51.238;17.128;2022-09-09T03:39:06;34.38;;;12.53;;
51961;SDS011;37986;51.238;17.128;2022-09-09T03:41:32;29.87;;;10.25;;
51961;SDS011;37986;51.238;17.128;2022-09-09T03:43:59;8.93;;;7.45;;
51961;SDS011;37986;51.238;17.128;2022-09-09T03:46:25;16.30;;;9.38;;
51961;SDS011;37986;51.238;17.128;2022-09-09T03:48:52;9.63;;;7.90;;
51961;SDS011;37986;51.238;17.128;2022-09-09T03:51:18;10.15;;;8.65;;
51961;SDS011;37986;51.238;17.128;2022-09-09T03:53:44;35.08;;;11.10;;
51961;SDS011;37986;51.238;17.128;2022-09-09T03:56:10;54.20;;;11.60;;
51961;SDS011;37986;51.238;17.128;2022-09-09T03:58:36;56.73;;;9.30;;
51961;SDS011;37986;51.238;17.128;2022-09-09T04:01:04;83.62;;;10.18;;
51961;SDS011;37986;51.238;17.128;2022-09-09T04:03:38;115.20;;;10.70;;
51961;SDS011;37986;51.238;17.128;2022-09-09T04:06:07;45.17;;;7.60;;
51961;SDS011;37986;51.238;17.128;2022-09-09T04:08:36;34.23;;;7.40;;
51961;SDS011;37986;51.238;17.128;2022-09-09T04:11:03;67.53;;;7.90;;
51961;SDS011;37986;51.238;17.128;2022-09-09T04:13:34;52.23;;;8.50;;
51961;SDS011;37986;51.238;17.128;2022-09-09T04:16:05;76.72;;;9.38;;
51961;SDS011;37986;51.238;17.128;2022-09-09T04:18:33;62.23;;;9.83;;
51961;SDS011;37986;51.238;17.128;2022-09-09T04:20:59;89.83;;;9.50;;
51961;SDS011;37986;51.238;17.128;2022-09-09T04:23:27;97.40;;;9.93;;
51961;SDS011;37986;51.238;17.128;2022-09-09T04:25:56;113.47;;;11.57;;
51961;SDS011;37986;51.238;17.128;2022-09-09T04:28:25;30.45;;;9.53;;
51961;SDS011;37986;51.238;17.128;2022-09-09T04:30:53;22.85;;;10.13;;
51961;SDS011;37986;51.238;17.128;2022-09-09T04:33:19;31.87;;;11.70;;
51961;SDS011;37986;51.238;17.128;2022-09-09T04:35:49;23.22;;;12.03;;
51961;SDS011;37986;51.238;17.128;2022-09-09T04:38:15;19.15;;;12.68;;
51961;SDS011;37986;51.238;17.128;2022-09-09T04:40:48;14.95;;;12.53;;
51961;SDS011;37986;51.238;17.128;2022-09-09T04:43:17;14.53;;;12.85;;
51961;SDS011;37986;51.238;17.128;2022-09-09T04:45:46;14.55;;;12.80;;
51961;SDS011;37986;51.238;17.128;2022-09-09T04:48:13;14.93;;;12.90;;
51961;SDS011;37986;51.238;17.128;2022-09-09T04:50:41;18.00;;;13.08;;
51961;SDS011;37986;51.238;17.128;2022-09-09T04:53:06;16.40;;;12.85;;
51961;SDS011;37986;51.238;17.128;2022-09-09T04:55:33;45.55;;;13.40;;
51961;SDS011;37986;51.238;17.128;2022-09-09T04:58:07;101.47;;;13.30;;
51961;SDS011;37986;51.238;17.128;2022-09-09T05:00:33;51.98;;;11.40;;
51961;SDS011;37986;51.238;17.128;2022-09-09T05:03:06;71.30;;;11.83;;
51961;SDS011;37986;51.238;17.128;2022-09-09T05:05:33;38.48;;;12.05;;
51961;SDS011;37986;51.238;17.128;2022-09-09T05:08:09;64.03;;;11.20;;
51961;SDS011;37986;51.238;17.128;2022-09-09T05:10:34;66.47;;;10.45;;
51961;SDS011;37986;51.238;17.128;2022-09-09T05:13:02;89.10;;;11.43;;
51961;SDS011;37986;51.238;17.128;2022-09-09T05:15:29;33.15;;;9.58;;
51961;SDS011;37986;51.238;17.128;2022-09-09T05:17:57;21.70;;;8.23;;
51961;SDS011;37986;51.238;17.128;2022-09-09T05:20:27;19.85;;;8.35;;
51961;SDS011;37986;51.238;17.128;2022-09-09T05:22:53;16.35;;;7.83;;
51961;SDS011;37986;51.238;17.128;2022-09-09T05:25:22;11.18;;;9.55;;
51961;SDS011;37986;51.238;17.128;2022-09-09T05:27:51;9.55;;;8.55;;
51961;SDS011;37986;51.238;17.128;2022-09-09T05:30:18;10.43;;;8.53;;
51961;SDS011;37986;51.238;17.128;2022-09-09T05:32:45;18.45;;;11.38;;
51961;SDS011;37986;51.238;17.128;2022-09-09T05:35:14;17.02;;;10.20;;
51961;SDS011;37986;51.238;17.128;2022-09-09T05:37:40;14.18;;;8.38;;
51961;SDS011;37986;51.238;17.128;2022-09-09T05:40:06;13.58;;;8.43;;
51961;SDS011;37986;51.238;17.128;2022-09-09T05:42:32;9.60;;;6.90;;
51961;SDS011;37986;51.238;17.128;2022-09-09T05:44:58;8.08;;;6.53;;
51961;SDS011;37986;51.238;17.128;2022-09-09T05:47:24;6.58;;;5.95;;
51961;SDS011;37986;51.238;17.128;2022-09-09T05:49:51;8.38;;;5.90;;
51961;SDS011;37986;51.238;17.128;2022-09-09T05:52:17;7.03;;;4.65;;
51961;SDS011;37986;51.238;17.128;2022-09-09T05:54:43;6.45;;;4.60;;
51961;SDS011;37986;51.238;17.128;2022-09-09T05:57:09;5.15;;;4.60;;
51961;SDS011;37986;51.238;17.128;2022-09-09T05:59:34;8.53;;;4.50;;
51961;SDS011;37986;51.238;17.128;2022-09-09T06:02:00;4.97;;;4.37;;
51961;SDS011;37986;51.238;17.128;2022-09-09T06:04:26;4.90;;;4.50;;
51961;SDS011;37986;51.238;17.128;2022-09-09T06:06:52;6.25;;;4.53;;
51961;SDS011;37986;51.238;17.128;2022-09-09T06:09:18;5.47;;;4.60;;
51961;SDS011;37986;51.238;17.128;2022-09-09T06:11:44;8.95;;;4.62;;
51961;SDS011;37986;51.238;17.128;2022-09-09T06:14:10;7.75;;;5.08;;
51961;SDS011;37986;51.238;17.128;2022-09-09T06:16:36;11.70;;;6.00;;
51961;SDS011;37986;51.238;17.128;2022-09-09T06:19:07;11.10;;;4.97;;
51961;SDS011;37986;51.238;17.128;2022-09-09T06:21:36;4.70;;;4.25;;
51961;SDS011;37986;51.238;17.128;2022-09-09T06:24:02;6.08;;;4.70;;
51961;SDS011;37986;51.238;17.128;2022-09-09T06:26:33;7.45;;;4.87;;
51961;SDS011;37986;51.238;17.128;2022-09-09T06:29:02;11.97;;;6.30;;
51961;SDS011;37986;51.238;17.128;2022-09-09T06:31:29;6.83;;;5.22;;
51961;SDS011;37986;51.238;17.128;2022-09-09T06:33:59;7.87;;;5.05;;
51961;SDS011;37986;51.238;17.128;2022-09-09T06:36:26;9.35;;;5.80;;
51961;SDS011;37986;51.238;17.128;2022-09-09T06:39:03;6.97;;;4.67;;
51961;SDS011;37986;51.238;17.128;2022-09-09T06:41:31;7.87;;;4.28;;
51961;SDS011;37986;51.238;17.128;2022-09-09T06:43:58;6.97;;;4.37;;
51961;SDS011;37986;51.238;17.128;2022-09-09T06:46:25;7.95;;;4.90;;
51961;SDS011;37986;51.238;17.128;2022-09-09T06:48:55;6.75;;;4.42;;
51961;SDS011;37986;51.238;17.128;2022-09-09T06:51:23;5.28;;;4.28;;
51961;SDS011;37986;51.238;17.128;2022-09-09T06:53:52;4.28;;;3.42;;
51961;SDS011;37986;51.238;17.128;2022-09-09T06:56:30;5.53;;;3.87;;
51961;SDS011;37986;51.238;17.128;2022-09-09T06:58:53;5.62;;;4.28;;
51961;SDS011;37986;51.238;17.128;2022-09-09T07:01:28;6.42;;;4.20;;
51961;SDS011;37986;51.238;17.128;2022-09-09T07:03:53;5.30;;;3.58;;
51961;SDS011;37986;51.238;17.128;2022-09-09T07:06:23;5.10;;;3.75;;
51961;SDS011;37986;51.238;17.128;2022-09-09T07:08:55;4.37;;;3.70;;
51961;SDS011;37986;51.238;17.128;2022-09-09T07:11:24;3.90;;;3.60;;
51961;SDS011;37986;51.238;17.128;2022-09-09T07:13:54;5.45;;;4.00;;
51961;SDS011;37986;51.238;17.128;2022-09-09T07:16:21;7.05;;;4.12;;
51961;SDS011;37986;51.238;17.128;2022-09-09T07:18:50;4.80;;;4.30;;
51961;SDS011;37986;51.238;17.128;2022-09-09T07:21:18;4.30;;;3.90;;
51961;SDS011;37986;51.238;17.128;2022-09-09T07:23:46;4.92;;;4.00;;
51961;SDS011;37986;51.238;17.128;2022-09-09T07:26:17;5.03;;;3.22;;
51961;SDS011;37986;51.238;17.128;2022-09-09T07:28:42;5.83;;;3.52;;
51961;SDS011;37986;51.238;17.128;2022-09-09T07:31:15;3.83;;;3.45;;
51961;SDS011;37986;51.238;17.128;2022-09-09T07:33:45;5.58;;;3.37;;
51961;SDS011;37986;51.238;17.128;2022-09-09T07:36:13;5.83;;;3.62;;
51961;SDS011;37986;51.238;17.128;2022-09-09T07:38:50;4.55;;;4.10;;
51961;SDS011;37986;51.238;17.128;2022-09-09T07:41:23;4.30;;;3.45;;
51961;SDS011;37986;51.238;17.128;2022-09-09T07:43:52;5.00;;;3.60;;
51961;SDS011;37986;51.238;17.128;2022-09-09T07:46:23;5.05;;;3.70;;
51961;SDS011;37986;51.238;17.128;2022-09-09T07:48:51;5.08;;;2.87;;
51961;SDS011;37986;51.238;17.128;2022-09-09T07:51:22;3.95;;;3.27;;
51961;SDS011;37986;51.238;17.128;2022-09-09T07:53:53;3.72;;;3.25;;
51961;SDS011;37986;51.238;17.128;2022-09-09T07:56:24;4.17;;;3.75;;
51961;SDS011;37986;51.238;17.128;2022-09-09T07:58:53;3.62;;;3.30;;
51961;SDS011;37986;51.238;17.128;2022-09-09T08:01:22;5.17;;;3.75;;
51961;SDS011;37986;51.238;17.128;2022-09-09T08:03:59;4.78;;;3.33;;
51961;SDS011;37986;51.238;17.128;2022-09-09T08:06:28;3.47;;;3.17;;
51961;SDS011;37986;51.238;17.128;2022-09-09T08:09:08;3.05;;;1.40;;
51961;SDS011;37986;51.238;17.128;2022-09-09T08:11:35;6.10;;;3.15;;
51961;SDS011;37986;51.238;17.128;2022-09-09T08:14:02;5.55;;;2.17;;
51961;SDS011;37986;51.238;17.128;2022-09-09T08:16:30;9.65;;;5.87;;
51961;SDS011;37986;51.238;17.128;2022-09-09T08:18:59;5.17;;;3.25;;
51961;SDS011;37986;51.238;17.128;2022-09-09T08:21:26;9.43;;;6.78;;
51961;SDS011;37986;51.238;17.128;2022-09-09T08:23:55;7.00;;;4.50;;
51961;SDS011;37986;51.238;17.128;2022-09-09T08:26:31;6.22;;;3.15;;
51961;SDS011;37986;51.238;17.128;2022-09-09T08:28:57;3.72;;;2.92;;
51961;SDS011;37986;51.238;17.128;2022-09-09T08:31:26;4.33;;;2.98;;
51961;SDS011;37986;51.238;17.128;2022-09-09T08:33:58;7.65;;;2.30;;
51961;SDS011;37986;51.238;17.128;2022-09-09T08:36:27;2.95;;;2.00;;
51961;SDS011;37986;51.238;17.128;2022-09-09T08:38:55;2.45;;;1.70;;
51961;SDS011;37986;51.238;17.128;2022-09-09T08:50:32;1.62;;;1.07;;
51961;SDS011;37986;51.238;17.128;2022-09-09T08:58:25;4.62;;;1.27;;
51961;SDS011;37986;51.238;17.128;2022-09-09T09:00:57;2.70;;;1.20;;
51961;SDS011;37986;51.238;17.128;2022-09-09T09:03:45;4.72;;;1.20;;
51961;SDS011;37986;51.238;17.128;2022-09-09T09:09:17;2.50;;;1.40;;
51961;SDS011;37986;51.238;17.128;2022-09-09T09:12:10;4.15;;;1.20;;
51961;SDS011;37986;51.238;17.128;2022-09-09T09:14:47;2.55;;;1.07;;
51961;SDS011;37986;51.238;17.128;2022-09-09T09:17:15;2.37;;;1.07;;
51961;SDS011;37986;51.238;17.128;2022-09-09T09:19:45;1.80;;;1.10;;
51961;SDS011;37986;51.238;17.128;2022-09-09T09:27:43;2.75;;;0.95;;
51961;SDS011;37986;51.238;17.128;2022-09-09T09:30:35;2.33;;;0.88;;
51961;SDS011;37986;51.238;17.128;2022-09-09T09:33:06;4.28;;;0.90;;
51961;SDS011;37986;51.238;17.128;2022-09-09T09:35:42;2.20;;;0.82;;
51961;SDS011;37986;51.238;17.128;2022-09-09T09:38:12;1.60;;;0.98;;
51961;SDS011;37986;51.238;17.128;2022-09-09T09:40:49;3.00;;;1.15;;
51961;SDS011;37986;51.238;17.128;2022-09-09T09:43:33;3.05;;;0.82;;
51961;SDS011;37986;51.238;17.128;2022-09-09T09:46:05;2.87;;;1.00;;
51961;SDS011;37986;51.238;17.128;2022-09-09T09:48:45;2.58;;;0.93;;
51961;SDS011;37986;51.238;17.128;2022-09-09T09:51:25;3.50;;;1.60;;
51961;SDS011;37986;51.238;17.128;2022-09-09T09:53:53;2.75;;;1.05;;
51961;SDS011;37986;51.238;17.128;2022-09-09T09:56:27;2.92;;;1.12;;
51961;SDS011;37986;51.238;17.128;2022-09-09T09:58:57;2.90;;;1.05;;
51961;SDS011;37986;51.238;17.128;2022-09-09T10:01:28;2.22;;;1.10;;
51961;SDS011;37986;51.238;17.128;2022-09-09T10:04:01;1.62;;;0.90;;
51961;SDS011;37986;51.238;17.128;2022-09-09T10:06:41;2.22;;;1.00;;
51961;SDS011;37986;51.238;17.128;2022-09-09T10:09:24;4.15;;;1.12;;
51961;SDS011;37986;51.238;17.128;2022-09-09T10:12:03;2.62;;;1.00;;
51961;SDS011;37986;51.238;17.128;2022-09-09T10:29:32;2.60;;;1.00;;
51961;SDS011;37986;51.238;17.128;2022-09-09T10:35:11;3.37;;;1.10;;
51961;SDS011;37986;51.238;17.128;2022-09-09T10:38:17;6.55;;;1.20;;
51961;SDS011;37986;51.238;17.128;2022-09-09T10:43:39;4.55;;;1.22;;
51961;SDS011;37986;51.238;17.128;2022-09-09T10:57:10;4.35;;;0.80;;
51961;SDS011;37986;51.238;17.128;2022-09-09T10:59:57;1.87;;;0.88;;
51961;SDS011;37986;51.238;17.128;2022-09-09T11:02:30;2.62;;;0.88;;
51961;SDS011;37986;51.238;17.128;2022-09-09T11:05:03;2.83;;;0.70;;
51961;SDS011;37986;51.238;17.128;2022-09-09T11:07:42;3.80;;;0.70;;
51961;SDS011;37986;51.238;17.128;2022-09-09T11:10:25;2.80;;;0.75;;
51961;SDS011;37986;51.238;17.128;2022-09-09T11:22:01;2.70;;;0.80;;
51961;SDS011;37986;51.238;17.128;2022-09-09T11:24:35;2.80;;;0.70;;
51961;SDS011;37986;51.238;17.128;2022-09-09T11:27:17;3.70;;;0.60;;
51961;SDS011;37986;51.238;17.128;2022-09-09T11:41:02;2.83;;;0.60;;
51961;SDS011;37986;51.238;17.128;2022-09-09T11:43:32;2.35;;;0.80;;
51961;SDS011;37986;51.238;17.128;2022-09-09T11:46:12;1.82;;;0.60;;
51961;SDS011;37986;51.238;17.128;2022-09-09T11:48:42;3.52;;;0.72;;
51961;SDS011;37986;51.238;17.128;2022-09-09T11:51:26;2.40;;;0.70;;
51961;SDS011;37986;51.238;17.128;2022-09-09T11:53:49;1.52;;;0.70;;
51961;SDS011;37986;51.238;17.128;2022-09-09T11:56:47;1.60;;;0.65;;
51961;SDS011;37986;51.238;17.128;2022-09-09T12:07:38;5.50;;;0.88;;
51961;SDS011;37986;51.238;17.128;2022-09-09T12:10:26;1.85;;;0.98;;
51961;SDS011;37986;51.238;17.128;2022-09-09T12:15:52;2.80;;;0.82;;
51961;SDS011;37986;51.238;17.128;2022-09-09T12:24:11;1.40;;;0.68;;
51961;SDS011;37986;51.238;17.128;2022-09-09T12:26:50;3.27;;;1.10;;
51961;SDS011;37986;51.238;17.128;2022-09-09T12:32:32;1.72;;;0.93;;
51961;SDS011;37986;51.238;17.128;2022-09-09T12:40:05;1.52;;;0.90;;
51961;SDS011;37986;51.238;17.128;2022-09-09T12:42:52;2.27;;;0.90;;
51961;SDS011;37986;51.238;17.128;2022-09-09T12:45:21;2.85;;;0.90;;
51961;SDS011;37986;51.238;17.128;2022-09-09T12:47:52;3.05;;;0.80;;
51961;SDS011;37986;51.238;17.128;2022-09-09T12:50:25;3.23;;;0.83;;
51961;SDS011;37986;51.238;17.128;2022-09-09T12:52:58;1.70;;;0.82;;
51961;SDS011;37986;51.238;17.128;2022-09-09T12:55:31;1.52;;;0.90;;
51961;SDS011;37986;51.238;17.128;2022-09-09T12:58:03;5.65;;;1.35;;
51961;SDS011;37986;51.238;17.128;2022-09-09T13:00:31;2.80;;;0.90;;
51961;SDS011;37986;51.238;17.128;2022-09-09T13:03:00;3.00;;;0.70;;
51961;SDS011;37986;51.238;17.128;2022-09-09T13:05:34;3.10;;;0.90;;
51961;SDS011;37986;51.238;17.128;2022-09-09T13:08:05;3.70;;;1.00;;
51961;SDS011;37986;51.238;17.128;2022-09-09T13:10:39;3.30;;;1.00;;
51961;SDS011;37986;51.238;17.128;2022-09-09T13:13:22;3.42;;;1.00;;
51961;SDS011;37986;51.238;17.128;2022-09-09T13:16:01;2.27;;;0.90;;
51961;SDS011;37986;51.238;17.128;2022-09-09T13:18:30;1.02;;;0.80;;
51961;SDS011;37986;51.238;17.128;2022-09-09T13:21:01;1.00;;;0.90;;
51961;SDS011;37986;51.238;17.128;2022-09-09T13:23:29;1.65;;;1.22;;
51961;SDS011;37986;51.238;17.128;2022-09-09T13:26:02;2.50;;;0.90;;
51961;SDS011;37986;51.238;17.128;2022-09-09T13:28:49;2.80;;;1.20;;
51961;SDS011;37986;51.238;17.128;2022-09-09T13:31:24;3.60;;;1.00;;
51961;SDS011;37986;51.238;17.128;2022-09-09T13:33:55;2.42;;;0.90;;
51961;SDS011;37986;51.238;17.128;2022-09-09T13:36:30;3.77;;;0.85;;
51961;SDS011;37986;51.238;17.128;2022-09-09T13:38:56;1.32;;;0.78;;
51961;SDS011;37986;51.238;17.128;2022-09-09T13:41:27;3.52;;;0.93;;
51961;SDS011;37986;51.238;17.128;2022-09-09T13:44:22;3.42;;;1.00;;
51961;SDS011;37986;51.238;17.128;2022-09-09T13:47:02;2.47;;;0.60;;
51961;SDS011;37986;51.238;17.128;2022-09-09T13:49:31;1.62;;;0.65;;
51961;SDS011;37986;51.238;17.128;2022-09-09T13:54:42;5.28;;;0.80;;
51961;SDS011;37986;51.238;17.128;2022-09-09T13:57:17;3.75;;;0.90;;
51961;SDS011;37986;51.238;17.128;2022-09-09T13:59:51;2.83;;;0.82;;
51961;SDS011;37986;51.238;17.128;2022-09-09T14:02:20;2.42;;;1.00;;
51961;SDS011;37986;51.238;17.128;2022-09-09T14:04:48;2.30;;;0.93;;
51961;SDS011;37986;51.238;17.128;2022-09-09T14:07:16;4.08;;;1.10;;
51961;SDS011;37986;51.238;17.128;2022-09-09T14:09:43;3.58;;;1.30;;
51961;SDS011;37986;51.238;17.128;2022-09-09T14:12:11;2.52;;;0.98;;
51961;SDS011;37986;51.238;17.128;2022-09-09T14:14:38;4.33;;;1.00;;
51961;SDS011;37986;51.238;17.128;2022-09-09T14:17:04;7.85;;;1.20;;
51961;SDS011;37986;51.238;17.128;2022-09-09T14:19:30;2.27;;;1.02;;
51961;SDS011;37986;51.238;17.128;2022-09-09T14:21:56;2.02;;;0.95;;
51961;SDS011;37986;51.238;17.128;2022-09-09T14:24:24;4.00;;;1.20;;
51961;SDS011;37986;51.238;17.128;2022-09-09T14:26:50;3.25;;;0.90;;
51961;SDS011;37986;51.238;17.128;2022-09-09T14:29:17;5.10;;;1.30;;
51961;SDS011;37986;51.238;17.128;2022-09-09T14:31:43;2.05;;;0.93;;
51961;SDS011;37986;51.238;17.128;2022-09-09T14:34:09;3.42;;;1.02;;
51961;SDS011;37986;51.238;17.128;2022-09-09T14:36:37;3.55;;;0.90;;
51961;SDS011;37986;51.238;17.128;2022-09-09T14:39:04;2.75;;;1.07;;
51961;SDS011;37986;51.238;17.128;2022-09-09T14:41:30;3.27;;;0.85;;
51961;SDS011;37986;51.238;17.128;2022-09-09T14:43:56;4.97;;;2.95;;
51961;SDS011;37986;51.238;17.128;2022-09-09T14:46:26;2.15;;;1.00;;
51961;SDS011;37986;51.238;17.128;2022-09-09T14:48:55;4.60;;;1.05;;
51961;SDS011;37986;51.238;17.128;2022-09-09T14:51:22;2.77;;;1.10;;
51961;SDS011;37986;51.238;17.128;2022-09-09T14:53:50;2.37;;;1.30;;
51961;SDS011;37986;51.238;17.128;2022-09-09T14:56:19;7.03;;;1.65;;
51961;SDS011;37986;51.238;17.128;2022-09-09T14:58:50;4.28;;;1.10;;
51961;SDS011;37986;51.238;17.128;2022-09-09T15:01:19;3.05;;;1.10;;
51961;SDS011;37986;51.238;17.128;2022-09-09T15:03:52;2.70;;;1.22;;
51961;SDS011;37986;51.238;17.128;2022-09-09T15:06:23;4.90;;;1.07;;
51961;SDS011;37986;51.238;17.128;2022-09-09T15:08:51;3.58;;;1.32;;
51961;SDS011;37986;51.238;17.128;2022-09-09T15:11:19;1.95;;;1.10;;
51961;SDS011;37986;51.238;17.128;2022-09-09T15:13:50;1.75;;;1.10;;
51961;SDS011;37986;51.238;17.128;2022-09-09T15:16:20;6.67;;;1.95;;
51961;SDS011;37986;51.238;17.128;2022-09-09T15:21:36;6.25;;;1.77;;
51961;SDS011;37986;51.238;17.128;2022-09-09T15:24:03;2.50;;;1.17;;
51961;SDS011;37986;51.238;17.128;2022-09-09T15:26:32;1.60;;;1.35;;
51961;SDS011;37986;51.238;17.128;2022-09-09T15:29:06;5.15;;;1.25;;
51961;SDS011;37986;51.238;17.128;2022-09-09T15:31:30;3.80;;;1.93;;
51961;SDS011;37986;51.238;17.128;2022-09-09T15:36:30;6.47;;;0.90;;
51961;SDS011;37986;51.238;17.128;2022-09-09T15:39:00;4.72;;;1.20;;
51961;SDS011;37986;51.238;17.128;2022-09-09T15:41:29;4.92;;;1.60;;
51961;SDS011;37986;51.238;17.128;2022-09-09T15:43:57;9.78;;;4.95;;
51961;SDS011;37986;51.238;17.128;2022-09-09T15:46:28;4.25;;;3.20;;
51961;SDS011;37986;51.238;17.128;2022-09-09T15:49:03;4.20;;;2.45;;
51961;SDS011;37986;51.238;17.128;2022-09-09T15:51:43;4.50;;;2.00;;
51961;SDS011;37986;51.238;17.128;2022-09-09T15:54:16;2.52;;;1.00;;
51961;SDS011;37986;51.238;17.128;2022-09-09T15:56:56;2.90;;;1.60;;
51961;SDS011;37986;51.238;17.128;2022-09-09T15:59:24;6.00;;;1.57;;
51961;SDS011;37986;51.238;17.128;2022-09-09T16:01:53;19.10;;;13.03;;
51961;SDS011;37986;51.238;17.128;2022-09-09T16:04:24;15.48;;;9.58;;
51961;SDS011;37986;51.238;17.128;2022-09-09T16:06:51;11.70;;;7.47;;
51961;SDS011;37986;51.238;17.128;2022-09-09T16:09:24;13.13;;;7.10;;
51961;SDS011;37986;51.238;17.128;2022-09-09T16:11:54;37.55;;;23.60;;
51961;SDS011;37986;51.238;17.128;2022-09-09T16:14:24;45.85;;;29.30;;
51961;SDS011;37986;51.238;17.128;2022-09-09T16:16:50;22.45;;;14.50;;
51961;SDS011;37986;51.238;17.128;2022-09-09T16:19:17;26.40;;;13.32;;
51961;SDS011;37986;51.238;17.128;2022-09-09T16:21:45;9.08;;;6.15;;
51961;SDS011;37986;51.238;17.128;2022-09-09T16:24:14;4.92;;;2.35;;
51961;SDS011;37986;51.238;17.128;2022-09-09T16:26:48;4.87;;;1.62;;
51961;SDS011;37986;51.238;17.128;2022-09-09T16:29:14;4.97;;;1.50;;
51961;SDS011;37986;51.238;17.128;2022-09-09T16:31:42;8.18;;;3.90;;
51961;SDS011;37986;51.238;17.128;2022-09-09T16:34:10;5.85;;;2.22;;
51961;SDS011;37986;51.238;17.128;2022-09-09T16:36:37;4.70;;;1.20;;
51961;SDS011;37986;51.238;17.128;2022-09-09T16:39:06;4.33;;;1.45;;
51961;SDS011;37986;51.238;17.128;2022-09-09T16:41:34;3.27;;;1.12;;
51961;SDS011;37986;51.238;17.128;2022-09-09T16:44:04;2.37;;;1.17;;
51961;SDS011;37986;51.238;17.128;2022-09-09T16:46:33;3.55;;;1.10;;
51961;SDS011;37986;51.238;17.128;2022-09-09T16:49:02;3.52;;;1.37;;
51961;SDS011;37986;51.238;17.128;2022-09-09T16:51:31;2.27;;;1.15;;
51961;SDS011;37986;51.238;17.128;2022-09-09T16:54:01;2.83;;;1.67;;
51961;SDS011;37986;51.238;17.128;2022-09-09T16:56:30;2.33;;;1.20;;
51961;SDS011;37986;51.238;17.128;2022-09-09T16:58:59;6.70;;;1.20;;
51961;SDS011;37986;51.238;17.128;2022-09-09T17:01:28;7.67;;;1.50;;
51961;SDS011;37986;51.238;17.128;2022-09-09T17:03:57;2.20;;;1.10;;
51961;SDS011;37986;51.238;17.128;2022-09-09T17:06:27;3.35;;;1.22;;
51961;SDS011;37986;51.238;17.128;2022-09-09T17:08:57;4.50;;;2.45;;
51961;SDS011;37986;51.238;17.128;2022-09-09T17:11:26;3.22;;;1.42;;
51961;SDS011;37986;51.238;17.128;2022-09-09T17:13:54;4.72;;;1.22;;
51961;SDS011;37986;51.238;17.128;2022-09-09T17:16:22;3.30;;;1.10;;
51961;SDS011;37986;51.238;17.128;2022-09-09T17:18:52;4.08;;;1.12;;
51961;SDS011;37986;51.238;17.128;2022-09-09T17:21:20;1.92;;;1.07;;
51961;SDS011;37986;51.238;17.128;2022-09-09T17:23:49;4.17;;;1.30;;
51961;SDS011;37986;51.238;17.128;2022-09-09T17:26:16;2.37;;;1.20;;